Terminal Aerodrome Forecast
Issued by NWS Omaha/Valley, NE

Home | Current Version | Previous Version | Text Only | Print | Product List | Glossary On
Versions: 1 2 3 4 5 6 7 8 9 10 11 12 13 14 15 16 17 18 19 20 21 22 23 24 25 26 27 28 29
000
FTUS43 KOAX 312320
TAFOFK
TAF
KOFK 312320Z 0100/0124 14009KT P6SM BKN110
     FM010400 12007KT P6SM SCT030 OVC080
     FM011100 14007KT P6SM BKN030
     FM011800 15012G19KT P6SM OVC100=

USA.gov is the U.S. government's official web portal to all federal, state and local government web resources and services.